Time;durP1;ratioP1;P1;durP2;ratioP2;P2;SDS_P1;SDS_P2;PMS_P1;PMS_P2;Temp;Humidity;BMP_temperature;BMP_pressure;BME280_temperature;BME280_humidity;BME280_pressure;Samples;Min_cycle;Max_cycle;Signal;HPM_P1;HPM_P2
2023/04/08 00:00:08;;;;;;;6.07;5.47;;;7.30;99.90;;;;;;4959503;28;20030;-70
2023/04/08 00:02:34;;;;;;;9.48;5.32;;;7.30;99.90;;;;;;4960161;28;20102;-69
2023/04/08 00:04:59;;;;;;;8.48;5.30;;;7.30;99.90;;;;;;4960493;28;20062;-69
2023/04/08 00:07:25;;;;;;;7.25;4.70;;;7.30;99.90;;;;;;4960184;28;20031;-69
2023/04/08 00:09:50;;;;;;;5.32;4.78;;;7.30;99.90;;;;;;4960418;29;20027;-69
2023/04/08 00:12:16;;;;;;;7.00;5.63;;;7.20;99.90;;;;;;4958365;28;20038;-69
2023/04/08 00:14:42;;;;;;;4.93;4.47;;;7.20;99.90;;;;;;4960316;29;20042;-69
2023/04/08 00:17:07;;;;;;;8.73;4.88;;;7.20;99.90;;;;;;4960346;28;20031;-69
2023/04/08 00:19:33;;;;;;;6.70;5.22;;;7.20;99.90;;;;;;4959696;28;20034;-70
2023/04/08 00:21:59;;;;;;;6.00;5.40;;;7.10;99.90;;;;;;4960335;28;20031;-70
2023/04/08 00:24:24;;;;;;;4.75;4.25;;;7.10;99.90;;;;;;4960066;28;20058;-69
2023/04/08 00:26:51;;;;;;;5.68;4.68;;;7.10;99.90;;;;;;4958924;28;20031;-70
2023/04/08 00:29:16;;;;;;;11.20;4.88;;;7.10;99.90;;;;;;4959568;28;20028;-69
2023/04/08 00:31:42;;;;;;;5.43;4.63;;;7.10;99.90;;;;;;4960168;28;20038;-69
2023/04/08 00:34:08;;;;;;;6.10;5.28;;;7.10;99.90;;;;;;4959535;28;20079;-69
2023/04/08 00:36:35;;;;;;;9.73;5.13;;;7.10;99.90;;;;;;4959051;28;20051;-70
2023/04/08 00:39:01;;;;;;;6.00;4.65;;;7.10;99.90;;;;;;4960061;28;20079;-69
2023/04/08 00:41:26;;;;;;;5.18;4.68;;;7.00;99.90;;;;;;4961548;28;20078;-69
2023/04/08 00:43:53;;;;;;;5.60;5.07;;;6.90;99.90;;;;;;4959872;28;20447;-69
2023/04/08 00:46:19;;;;;;;6.18;5.47;;;6.90;99.90;;;;;;4959470;28;20027;-69
2023/04/08 00:48:44;;;;;;;5.20;4.50;;;6.90;99.90;;;;;;4958128;28;20034;-70
2023/04/08 00:51:11;;;;;;;9.30;4.72;;;6.80;99.90;;;;;;4959460;28;20041;-69
2023/04/08 00:53:36;;;;;;;5.18;4.78;;;6.80;99.90;;;;;;4958598;28;20027;-69
2023/04/08 00:56:02;;;;;;;6.30;5.32;;;6.80;99.90;;;;;;4959653;29;20031;-70
2023/04/08 00:58:29;;;;;;;5.63;4.90;;;6.70;99.90;;;;;;4959315;28;20078;-70
2023/04/08 01:01:05;;;;;;;6.43;5.10;;;6.70;99.90;;;;;;4959461;28;20027;-69
2023/04/08 01:03:49;;;;;;;6.43;5.15;;;6.70;99.90;;;;;;4959448;29;20011;-70
2023/04/08 01:06:33;;;;;;;7.25;5.43;;;6.70;99.90;;;;;;4957953;28;20123;-70
2023/04/08 01:08:59;;;;;;;7.20;5.32;;;6.80;99.90;;;;;;4959131;28;20047;-69
2023/04/08 01:11:28;;;;;;;6.50;5.57;;;6.70;99.90;;;;;;4958882;28;20369;-70
2023/04/08 01:13:56;;;;;;;6.03;4.93;;;6.70;99.90;;;;;;4958159;28;20377;-69
2023/04/08 01:16:24;;;;;;;7.28;5.82;;;6.80;99.90;;;;;;4956802;28;20050;-69
2023/04/08 01:18:52;;;;;;;7.28;5.30;;;6.80;99.90;;;;;;4958830;28;20035;-69
2023/04/08 01:21:20;;;;;;;7.25;4.70;;;6.80;99.90;;;;;;4957066;28;20090;-69
2023/04/08 01:24:05;;;;;;;5.68;4.68;;;6.70;99.90;;;;;;4957996;28;20530;-70
2023/04/08 01:26:31;;;;;;;7.88;5.25;;;6.70;99.90;;;;;;4955378;28;20047;-69
2023/04/08 01:28:59;;;;;;;7.93;5.30;;;6.70;99.90;;;;;;4958198;28;20114;-69
2023/04/08 01:31:26;;;;;;;7.57;5.03;;;6.60;99.90;;;;;;4957994;28;20034;-69
2023/04/08 01:33:52;;;;;;;5.88;4.85;;;6.60;99.90;;;;;;4958781;28;20038;-69
2023/04/08 01:36:19;;;;;;;10.73;5.47;;;6.60;99.90;;;;;;4959262;29;20105;-69
2023/04/08 01:38:47;;;;;;;6.32;4.90;;;6.70;99.90;;;;;;4958612;28;20019;-69
2023/04/08 01:41:12;;;;;;;5.63;4.97;;;6.70;99.90;;;;;;4959081;28;20031;-69
2023/04/08 01:43:43;;;;;;;9.30;5.38;;;6.70;99.90;;;;;;4958456;28;20030;-69
2023/04/08 01:46:10;;;;;;;8.02;4.88;;;6.70;99.90;;;;;;4955137;28;20067;-69
2023/04/08 01:48:37;;;;;;;5.10;4.60;;;6.60;99.90;;;;;;4956742;28;20027;-69
2023/04/08 01:51:04;;;;;;;6.50;4.80;;;6.60;99.90;;;;;;4958147;28;20027;-69
2023/04/08 01:53:31;;;;;;;6.93;4.88;;;6.50;99.90;;;;;;4958639;29;20085;-69
2023/04/08 01:56:02;;;;;;;5.90;5.00;;;6.50;99.90;;;;;;4956349;28;20948;-69
2023/04/08 01:58:36;;;;;;;5.07;4.63;;;6.50;99.90;;;;;;4957068;28;20023;-69
2023/04/08 02:01:04;;;;;;;6.18;4.95;;;6.50;99.90;;;;;;4957139;28;20027;-69
2023/04/08 02:03:32;;;;;;;5.40;4.90;;;6.50;99.90;;;;;;4958238;29;20384;-69
2023/04/08 02:05:58;;;;;;;5.88;5.10;;;6.50;99.90;;;;;;4957248;28;20023;-69
2023/04/08 02:08:24;;;;;;;7.30;5.10;;;6.50;99.90;;;;;;4957967;29;20023;-69
2023/04/08 02:10:49;;;;;;;5.38;4.43;;;6.50;99.90;;;;;;4957582;28;20051;-69
2023/04/08 02:13:15;;;;;;;5.80;4.68;;;6.50;99.90;;;;;;4957958;29;20484;-69
2023/04/08 02:15:46;;;;;;;6.97;4.65;;;6.50;99.90;;;;;;4956646;29;20555;-69
2023/04/08 02:18:21;;;;;;;5.18;4.63;;;6.40;99.90;;;;;;4957050;29;20477;-69
2023/04/08 02:20:55;;;;;;;4.85;4.43;;;6.40;99.90;;;;;;4952022;28;20040;-69
2023/04/08 02:23:25;;;;;;;4.90;4.50;;;6.40;99.90;;;;;;4957921;28;20015;-69
2023/04/08 02:25:54;;;;;;;6.57;5.10;;;6.40;99.90;;;;;;4957977;28;20082;-69
2023/04/08 02:28:20;;;;;;;7.00;5.53;;;6.40;99.90;;;;;;4958559;28;20031;-69
2023/04/08 02:30:56;;;;;;;5.95;4.20;;;6.40;99.90;;;;;;4958124;28;20032;-69
2023/04/08 02:33:23;;;;;;;5.45;4.47;;;6.40;99.90;;;;;;4957080;28;20027;-69
2023/04/08 02:35:53;;;;;;;8.00;4.68;;;6.40;99.90;;;;;;4958344;29;20066;-69
2023/04/08 02:38:20;;;;;;;6.15;4.70;;;6.40;99.90;;;;;;4958655;28;20018;-69
2023/04/08 02:40:49;;;;;;;9.00;4.88;;;6.40;99.90;;;;;;4957796;28;20046;-69
2023/04/08 02:43:15;;;;;;;5.68;5.18;;;6.30;99.90;;;;;;4958021;28;20019;-69
2023/04/08 02:45:41;;;;;;;5.65;4.63;;;6.30;99.90;;;;;;4958195;28;20070;-69
2023/04/08 02:48:07;;;;;;;6.60;4.88;;;6.20;99.90;;;;;;4950239;29;20031;-69
2023/04/08 02:50:33;;;;;;;5.75;4.70;;;6.20;99.90;;;;;;4958075;28;20054;-69
2023/04/08 02:52:59;;;;;;;5.90;4.95;;;6.20;99.90;;;;;;4958389;28;20031;-69
2023/04/08 02:55:24;;;;;;;5.85;5.32;;;6.20;99.90;;;;;;4957890;28;20031;-69
2023/04/08 02:57:50;;;;;;;6.65;5.32;;;6.20;99.90;;;;;;4958330;28;20027;-69
2023/04/08 03:00:16;;;;;;;5.60;5.10;;;6.20;99.90;;;;;;4959432;28;20396;-69
2023/04/08 03:02:42;;;;;;;8.25;5.40;;;6.10;99.90;;;;;;4962029;29;20102;-69
2023/04/08 03:05:08;;;;;;;7.28;4.90;;;6.00;99.90;;;;;;4961040;28;20069;-69
2023/04/08 03:07:34;;;;;;;7.65;5.55;;;6.00;99.90;;;;;;4961571;29;20095;-69
2023/04/08 03:10:01;;;;;;;5.82;5.25;;;6.00;99.90;;;;;;4961383;28;20429;-69
2023/04/08 03:12:27;;;;;;;6.15;5.32;;;5.90;99.90;;;;;;4961701;29;20082;-69
2023/04/08 03:14:53;;;;;;;8.23;5.15;;;5.90;99.90;;;;;;4961430;28;20463;-69
2023/04/08 03:17:20;;;;;;;6.88;5.25;;;5.90;99.90;;;;;;4961767;29;20028;-69
2023/04/08 03:19:45;;;;;;;7.10;5.22;;;5.80;99.90;;;;;;4961166;28;20023;-70
2023/04/08 03:22:12;;;;;;;6.53;5.18;;;5.80;99.90;;;;;;4961601;28;20062;-69
2023/04/08 03:24:38;;;;;;;5.90;4.95;;;5.70;99.90;;;;;;4961430;28;20058;-69
2023/04/08 03:27:04;;;;;;;6.10;5.50;;;5.70;99.90;;;;;;4961577;29;20036;-69
2023/04/08 03:29:30;;;;;;;6.90;5.43;;;5.60;99.90;;;;;;4961067;28;20566;-69
2023/04/08 03:31:57;;;;;;;6.85;5.38;;;5.50;99.90;;;;;;4961448;28;20062;-69
2023/04/08 03:34:22;;;;;;;6.32;5.57;;;5.50;99.90;;;;;;4958749;28;20038;-69
2023/04/08 03:36:48;;;;;;;6.20;5.60;;;5.50;99.90;;;;;;4961460;29;20031;-69
2023/04/08 03:39:13;;;;;;;6.43;5.47;;;5.40;99.90;;;;;;4961236;28;20480;-70
2023/04/08 03:41:39;;;;;;;6.47;5.68;;;5.40;99.90;;;;;;4961141;28;20023;-69
2023/04/08 03:44:05;;;;;;;6.20;5.68;;;5.40;99.90;;;;;;4961085;28;20053;-69
2023/04/08 03:46:30;;;;;;;6.30;5.70;;;5.40;99.90;;;;;;4961410;28;20396;-69
2023/04/08 03:48:56;;;;;;;5.90;5.40;;;5.40;99.90;;;;;;4960788;28;20505;-69
2023/04/08 03:51:22;;;;;;;5.97;5.38;;;5.30;99.90;;;;;;4961282;28;20027;-69
2023/04/08 03:53:48;;;;;;;9.00;5.43;;;5.30;99.90;;;;;;4959462;29;20027;-69
2023/04/08 03:56:14;;;;;;;6.47;5.85;;;5.30;99.90;;;;;;4961154;28;20023;-69
2023/04/08 03:58:40;;;;;;;6.28;5.68;;;5.30;99.90;;;;;;4960859;28;20019;-69
2023/04/08 04:01:05;;;;;;;6.00;5.40;;;5.30;99.90;;;;;;4961187;29;20078;-69
2023/04/08 04:03:31;;;;;;;6.93;6.22;;;5.30;99.90;;;;;;4960684;28;20027;-69
2023/04/08 04:05:57;;;;;;;6.78;5.97;;;5.30;99.90;;;;;;4960957;28;20023;-69
2023/04/08 04:08:22;;;;;;;5.90;5.30;;;5.30;99.90;;;;;;4959348;28;20023;-69
2023/04/08 04:10:48;;;;;;;8.13;5.60;;;5.30;99.90;;;;;;4960539;28;20031;-69
2023/04/08 04:13:14;;;;;;;5.78;5.28;;;5.40;99.90;;;;;;4960602;29;20023;-69
2023/04/08 04:15:40;;;;;;;5.93;5.38;;;5.40;99.90;;;;;;4960905;28;20454;-69
2023/04/08 04:18:06;;;;;;;6.32;5.50;;;5.30;99.90;;;;;;4960351;28;20393;-70
2023/04/08 04:20:32;;;;;;;7.57;5.78;;;5.30;99.90;;;;;;4960512;29;20044;-69
2023/04/08 04:22:57;;;;;;;6.78;6.10;;;5.30;99.90;;;;;;4960246;28;20118;-69
2023/04/08 04:25:23;;;;;;;7.50;6.55;;;5.20;99.90;;;;;;4960443;29;20591;-69
2023/04/08 04:27:49;;;;;;;6.90;5.50;;;5.20;99.90;;;;;;4960159;28;20082;-69
2023/04/08 04:30:15;;;;;;;6.70;5.45;;;5.20;99.90;;;;;;4959164;28;20542;-69
2023/04/08 04:32:44;;;;;;;7.15;6.15;;;5.20;99.90;;;;;;4960179;28;20034;-69
2023/04/08 04:35:10;;;;;;;5.95;5.35;;;5.10;99.90;;;;;;4960464;28;20483;-69
2023/04/08 04:37:36;;;;;;;6.90;5.80;;;5.10;99.90;;;;;;4960216;29;20112;-69
2023/04/08 04:40:06;;;;;;;6.35;5.78;;;5.10;99.90;;;;;;4960474;28;20062;-69
2023/04/08 04:42:32;;;;;;;7.15;6.45;;;5.00;99.90;;;;;;4960113;28;20042;-69
2023/04/08 04:44:57;;;;;;;7.13;6.40;;;5.00;99.90;;;;;;4958953;28;20496;-69
2023/04/08 04:47:24;;;;;;;6.47;5.88;;;5.00;99.90;;;;;;4960033;29;20162;-70
2023/04/08 04:49:49;;;;;;;7.28;6.57;;;4.90;99.90;;;;;;4958804;28;20027;-69
2023/04/08 04:52:15;;;;;;;10.07;7.30;;;4.90;99.90;;;;;;4959741;28;20031;-69
2023/04/08 04:54:41;;;;;;;9.70;6.93;;;4.90;99.90;;;;;;4960125;28;20026;-70
2023/04/08 04:57:06;;;;;;;7.78;6.97;;;5.00;99.90;;;;;;4959576;28;20098;-69
2023/04/08 04:59:32;;;;;;;7.47;6.35;;;5.00;99.90;;;;;;4960007;29;20488;-69
2023/04/08 05:01:58;;;;;;;8.55;6.80;;;5.10;99.90;;;;;;4959634;28;20106;-69
2023/04/08 05:04:25;;;;;;;9.80;6.53;;;5.10;99.90;;;;;;4959843;28;20026;-69
2023/04/08 05:06:50;;;;;;;7.82;7.03;;;5.00;99.90;;;;;;4959466;28;20130;-69
2023/04/08 05:09:16;;;;;;;7.70;6.07;;;5.00;99.90;;;;;;4959700;28;20059;-69
2023/04/08 05:11:42;;;;;;;9.02;6.82;;;5.00;99.90;;;;;;4958870;28;20108;-69
2023/04/08 05:14:07;;;;;;;12.68;6.40;;;5.10;99.90;;;;;;4959510;29;20023;-69
2023/04/08 05:16:34;;;;;;;6.82;6.07;;;5.10;99.90;;;;;;4958860;28;20067;-69
2023/04/08 05:18:59;;;;;;;7.80;6.20;;;5.00;99.90;;;;;;4959273;28;20027;-69
2023/04/08 05:21:26;;;;;;;8.05;5.68;;;5.00;99.90;;;;;;4959106;28;20061;-69
2023/04/08 05:23:52;;;;;;;6.43;5.82;;;5.10;99.90;;;;;;4958874;28;20547;-69
2023/04/08 05:26:20;;;;;;;10.48;6.28;;;5.00;99.90;;;;;;4957600;29;20035;-69
2023/04/08 05:28:47;;;;;;;6.85;6.25;;;5.10;99.90;;;;;;4958906;28;20027;-69
2023/04/08 05:31:15;;;;;;;7.15;6.45;;;5.00;99.90;;;;;;4958582;28;20063;-69
2023/04/08 05:33:41;;;;;;;8.30;6.68;;;5.00;99.90;;;;;;4959036;28;20033;-69
2023/04/08 05:36:06;;;;;;;8.82;7.82;;;4.90;99.90;;;;;;4959156;28;20109;-69
2023/04/08 05:38:32;;;;;;;9.32;6.82;;;4.90;99.90;;;;;;4958884;28;20102;-69
2023/04/08 05:40:58;;;;;;;7.18;6.00;;;4.80;99.90;;;;;;4958987;28;20400;-69
2023/04/08 05:43:23;;;;;;;7.15;6.05;;;4.90;99.90;;;;;;4958800;28;20023;-69
2023/04/08 05:45:50;;;;;;;7.65;6.55;;;4.90;99.90;;;;;;4959161;29;20023;-69
2023/04/08 05:48:15;;;;;;;6.80;6.20;;;4.90;99.90;;;;;;4958241;28;20062;-68
2023/04/08 05:50:42;;;;;;;7.05;6.35;;;4.90;99.90;;;;;;4959129;29;20031;-69
2023/04/08 05:53:08;;;;;;;7.90;6.72;;;5.00;99.90;;;;;;4958855;28;20023;-69
2023/04/08 05:55:34;;;;;;;10.00;6.35;;;5.10;99.90;;;;;;4958526;28;20466;-69
2023/04/08 05:58:00;;;;;;;6.28;5.65;;;5.20;99.90;;;;;;4958410;28;20059;-70
2023/04/08 06:00:26;;;;;;;6.85;6.25;;;5.30;99.90;;;;;;4959004;28;20483;-69
2023/04/08 06:02:52;;;;;;;10.77;7.57;;;5.40;99.90;;;;;;4958620;28;20027;-69
2023/04/08 06:05:18;;;;;;;12.38;9.10;;;5.70;99.90;;;;;;4958875;29;20034;-69
2023/04/08 06:07:43;;;;;;;13.48;9.50;;;5.80;99.90;;;;;;4958299;28;20027;-69
2023/04/08 06:10:09;;;;;;;9.32;7.07;;;5.90;99.90;;;;;;4958362;28;20027;-69
2023/04/08 06:12:38;;;;;;;7.35;6.55;;;6.00;99.90;;;;;;4958416;28;20110;-69
2023/04/08 06:15:05;;;;;;;7.85;7.03;;;6.10;99.90;;;;;;4957024;28;20024;-69
2023/04/08 06:17:31;;;;;;;6.95;6.35;;;6.30;99.90;;;;;;4958094;28;20528;-69
2023/04/08 06:19:56;;;;;;;11.05;6.68;;;6.40;99.90;;;;;;4955199;28;20031;-70
2023/04/08 06:22:22;;;;;;;9.43;6.38;;;6.60;99.90;;;;;;4957361;28;20069;-70
2023/04/08 06:24:47;;;;;;;9.65;6.53;;;6.70;99.90;;;;;;4958505;28;20055;-70
2023/04/08 06:27:14;;;;;;;8.18;6.03;;;6.80;99.90;;;;;;4953549;28;20055;-69
2023/04/08 06:29:40;;;;;;;7.97;6.55;;;6.90;99.90;;;;;;4957455;28;20043;-70
2023/04/08 06:32:06;;;;;;;8.65;6.32;;;6.90;99.90;;;;;;4957350;29;20035;-69
2023/04/08 06:34:31;;;;;;;8.45;6.28;;;7.00;99.90;;;;;;4960702;28;20023;-69
2023/04/08 06:36:57;;;;;;;7.85;6.95;;;7.10;99.90;;;;;;4962539;29;20078;-69
2023/04/08 06:39:23;;;;;;;6.93;6.13;;;7.20;99.90;;;;;;4962096;28;20023;-69
2023/04/08 06:41:48;;;;;;;9.20;6.95;;;7.20;99.90;;;;;;4962048;28;20027;-69
2023/04/08 06:44:14;;;;;;;8.82;6.68;;;7.30;99.90;;;;;;4962410;29;20031;-69
2023/04/08 06:46:40;;;;;;;8.23;7.15;;;7.30;99.90;;;;;;4956671;28;20045;-69
2023/04/08 06:49:06;;;;;;;11.40;7.80;;;7.40;99.90;;;;;;4961569;28;20480;-69
2023/04/08 06:51:31;;;;;;;12.52;6.75;;;7.50;99.90;;;;;;4960444;28;20027;-68
2023/04/08 06:53:57;;;;;;;10.90;8.27;;;7.60;99.90;;;;;;4961369;29;20038;-69
2023/04/08 06:56:25;;;;;;;7.97;6.90;;;7.70;99.90;;;;;;4961903;28;20027;-69
2023/04/08 06:58:51;;;;;;;8.10;5.95;;;7.80;99.90;;;;;;4961062;28;20369;-69
2023/04/08 07:01:17;;;;;;;8.98;5.85;;;7.90;99.90;;;;;;4962123;29;20070;-68
2023/04/08 07:03:42;;;;;;;8.45;5.90;;;8.10;99.90;;;;;;4962051;28;20099;-69
2023/04/08 07:06:08;;;;;;;7.57;5.43;;;8.20;99.90;;;;;;4961777;28;20023;-68
2023/04/08 07:08:35;;;;;;;7.78;5.60;;;8.30;99.90;;;;;;4960922;28;20030;-69
2023/04/08 07:11:01;;;;;;;8.05;5.57;;;8.50;99.90;;;;;;4960418;28;20031;-69
2023/04/08 07:13:28;;;;;;;10.90;4.65;;;8.60;99.90;;;;;;4961987;28;20082;-69
2023/04/08 07:15:54;;;;;;;7.97;5.70;;;8.70;99.90;;;;;;4961702;28;20027;-69
2023/04/08 07:18:20;;;;;;;6.80;5.43;;;8.80;99.90;;;;;;4961812;28;20027;-68
2023/04/08 07:20:50;;;;;;;7.18;5.65;;;8.90;99.90;;;;;;4961639;28;20092;-68
2023/04/08 07:23:16;;;;;;;8.63;5.30;;;9.00;99.90;;;;;;4961962;28;20019;-68
2023/04/08 07:25:41;;;;;;;6.18;5.43;;;9.10;99.90;;;;;;4961540;29;20027;-68
2023/04/08 07:28:07;;;;;;;6.97;4.88;;;9.20;99.90;;;;;;4958563;28;20380;-69
2023/04/08 07:30:32;;;;;;;4.95;4.25;;;9.30;99.90;;;;;;4960248;28;20038;-68
2023/04/08 07:32:58;;;;;;;6.07;5.07;;;9.40;99.90;;;;;;4961634;28;20407;-69
2023/04/08 07:35:24;;;;;;;6.80;4.65;;;9.60;99.90;;;;;;4961273;28;20028;-68
2023/04/08 07:37:51;;;;;;;6.30;4.85;;;9.80;99.90;;;;;;4961654;28;20019;-69
2023/04/08 07:40:17;;;;;;;10.52;4.57;;;10.00;99.90;;;;;;4959865;28;20030;-68
2023/04/08 07:42:43;;;;;;;5.90;4.72;;;10.20;99.90;;;;;;4961486;28;20027;-69
2023/04/08 07:45:09;;;;;;;6.82;4.40;;;10.30;99.90;;;;;;4960253;28;20054;-69
2023/04/08 07:47:35;;;;;;;9.73;4.95;;;10.30;99.90;;;;;;4959753;29;20027;-69
2023/04/08 07:50:02;;;;;;;8.43;4.72;;;10.30;99.90;;;;;;4961169;28;20031;-69
2023/04/08 07:52:29;;;;;;;5.97;4.70;;;10.30;99.90;;;;;;4961328;29;20027;-69
2023/04/08 07:54:55;;;;;;;6.65;4.72;;;10.40;99.90;;;;;;4961185;28;20031;-69
2023/04/08 07:57:21;;;;;;;7.57;5.25;;;10.50;99.90;;;;;;4960948;28;20412;-69
2023/04/08 07:59:46;;;;;;;8.82;4.93;;;10.80;99.90;;;;;;4961209;28;20074;-69
2023/04/08 08:02:12;;;;;;;7.45;4.30;;;10.70;99.90;;;;;;4961019;28;20186;-69
2023/04/08 08:04:38;;;;;;;6.13;4.20;;;10.80;99.90;;;;;;4960669;28;20531;-69
2023/04/08 08:07:03;;;;;;;5.43;4.45;;;10.80;99.90;;;;;;4960959;28;20078;-69
2023/04/08 08:09:29;;;;;;;6.20;5.13;;;10.90;99.90;;;;;;4959727;28;20081;-69
2023/04/08 08:11:55;;;;;;;5.93;4.07;;;11.00;99.90;;;;;;4959448;28;20027;-69
2023/04/08 08:14:21;;;;;;;8.50;5.07;;;11.20;99.90;;;;;;4960758;28;20035;-69
2023/04/08 08:16:48;;;;;;;6.43;4.60;;;11.30;99.90;;;;;;4961010;28;20476;-69
2023/04/08 08:19:14;;;;;;;9.75;4.78;;;11.30;99.90;;;;;;4960609;28;20456;-69
2023/04/08 08:21:40;;;;;;;8.80;5.68;;;11.40;99.90;;;;;;4960728;28;20070;-69
2023/04/08 08:24:05;;;;;;;7.85;4.72;;;11.50;99.90;;;;;;4960745;29;20082;-69
2023/04/08 08:26:34;;;;;;;11.13;4.45;;;11.70;99.90;;;;;;4957436;29;20082;-68
2023/04/08 08:29:00;;;;;;;8.27;4.63;;;11.80;99.90;;;;;;4956254;28;20117;-69
2023/04/08 08:31:26;;;;;;;9.30;4.20;;;11.80;99.90;;;;;;4960689;28;20031;-69
2023/04/08 08:33:51;;;;;;;6.20;4.03;;;11.90;99.90;;;;;;4958990;28;20031;-69
2023/04/08 08:36:17;;;;;;;10.95;4.53;;;12.20;99.90;;;;;;4960640;28;20027;-69
2023/04/08 08:38:43;;;;;;;8.20;3.88;;;12.50;99.90;;;;;;4959024;28;20118;-68
2023/04/08 08:41:08;;;;;;;5.50;3.70;;;12.70;99.90;;;;;;4960370;28;20086;-69
2023/04/08 08:43:34;;;;;;;5.22;3.80;;;12.80;99.90;;;;;;4959215;28;20030;-69
2023/04/08 08:46:00;;;;;;;5.40;3.20;;;12.90;99.90;;;;;;4959583;28;20032;-69
2023/04/08 08:48:26;;;;;;;7.63;3.85;;;13.10;99.90;;;;;;4960140;29;20483;-69
2023/04/08 08:50:52;;;;;;;9.13;3.97;;;13.10;99.90;;;;;;4960212;28;20062;-69
2023/04/08 08:53:18;;;;;;;9.43;4.40;;;13.30;99.90;;;;;;4959952;28;20380;-69
2023/04/08 08:55:44;;;;;;;5.90;3.53;;;13.40;99.90;;;;;;4959919;28;20042;-69
2023/04/08 08:58:10;;;;;;;9.00;3.95;;;13.40;99.90;;;;;;4959366;28;20035;-69
2023/04/08 09:00:37;;;;;;;4.22;3.13;;;13.40;99.90;;;;;;4960169;28;20506;-69
2023/04/08 09:03:23;;;;;;;7.75;3.10;;;13.40;99.90;;;;;;4959882;28;20057;-69
2023/04/08 09:05:54;;;;;;;4.55;3.25;;;13.50;99.90;;;;;;4958523;28;20082;-69
2023/04/08 09:08:33;;;;;;;5.82;3.22;;;13.70;99.90;;;;;;4959908;29;20472;-69
2023/04/08 09:11:14;;;;;;;8.82;2.80;;;13.80;99.90;;;;;;4951412;29;20031;-69
2023/04/08 09:13:40;;;;;;;5.90;3.00;;;13.90;99.90;;;;;;4958400;28;20035;-69
2023/04/08 09:16:12;;;;;;;3.53;3.10;;;14.00;99.90;;;;;;4959713;29;20031;-69
2023/04/08 09:18:40;;;;;;;6.95;3.08;;;14.20;99.90;;;;;;4959604;28;20123;-69
2023/04/08 09:21:06;;;;;;;5.75;2.72;;;14.20;99.90;;;;;;4959548;28;20046;-69
2023/04/08 09:23:43;;;;;;;3.88;2.58;;;14.30;99.90;;;;;;4958039;29;20027;-69
2023/04/08 09:26:10;;;;;;;5.15;2.90;;;14.40;99.90;;;;;;4959318;29;20047;-69
2023/04/08 09:28:37;;;;;;;4.47;2.97;;;14.40;99.90;;;;;;4958171;29;20090;-69
2023/04/08 09:31:26;;;;;;;6.93;3.15;;;14.30;99.90;;;;;;4959101;28;20012;-69
2023/04/08 09:33:54;;;;;;;3.08;2.50;;;14.40;99.90;;;;;;4954683;29;20086;-69
2023/04/08 09:36:20;;;;;;;3.08;2.33;;;14.60;99.90;;;;;;4959392;28;20381;-69
2023/04/08 09:38:46;;;;;;;3.75;2.55;;;14.60;99.90;;;;;;4959298;28;20095;-69
2023/04/08 09:41:15;;;;;;;4.18;2.85;;;14.80;99.90;;;;;;4959176;28;20019;-69
2023/04/08 09:43:48;;;;;;;4.60;2.40;;;15.00;99.90;;;;;;4959167;28;20027;-69
2023/04/08 09:46:17;;;;;;;7.22;2.85;;;15.00;99.90;;;;;;4959396;28;20462;-69
2023/04/08 09:48:50;;;;;;;6.88;2.75;;;15.10;99.90;;;;;;4958856;28;20082;-69
2023/04/08 09:51:18;;;;;;;4.55;2.70;;;15.20;99.90;;;;;;4959183;29;20023;-69
2023/04/08 09:53:51;;;;;;;4.75;2.80;;;15.30;99.90;;;;;;4958957;28;20067;-69
2023/04/08 09:56:18;;;;;;;6.13;2.80;;;15.30;99.90;;;;;;4958789;28;20031;-69
2023/04/08 09:59:08;;;;;;;14.35;3.30;;;15.30;99.90;;;;;;4958901;28;20023;-69
2023/04/08 10:01:38;;;;;;;4.68;2.35;;;15.50;99.90;;;;;;4957736;29;20051;-69
2023/04/08 10:04:09;;;;;;;3.90;2.33;;;15.50;99.90;;;;;;4957601;28;20062;-67
2023/04/08 10:06:35;;;;;;;3.75;2.15;;;15.50;99.90;;;;;;4958898;28;20059;-69
2023/04/08 10:09:03;;;;;;;2.10;1.90;;;15.50;99.90;;;;;;4958644;28;20411;-69
2023/04/08 10:11:29;;;;;;;8.32;2.55;;;15.60;99.90;;;;;;4958536;28;20031;-67
2023/04/08 10:13:55;;;;;;;3.28;2.42;;;15.60;99.90;;;;;;4957348;29;20032;-68
2023/04/08 10:16:26;;;;;;;3.38;2.10;;;15.70;99.90;;;;;;4958768;29;20054;-70
2023/04/08 10:18:55;;;;;;;4.53;2.47;;;15.80;99.90;;;;;;4957454;28;20436;-70
2023/04/08 10:21:33;;;;;;;6.18;2.58;;;15.70;99.60;;;;;;4958634;28;20046;-71
2023/04/08 10:24:04;;;;;;;5.00;2.00;;;15.80;99.20;;;;;;4957338;29;20511;-70
2023/04/08 10:26:40;;;;;;;5.10;2.20;;;15.80;98.60;;;;;;4958359;28;20030;-70
2023/04/08 10:29:18;;;;;;;6.90;2.85;;;15.80;99.00;;;;;;4958702;29;20019;-70
2023/04/08 10:31:49;;;;;;;7.20;2.20;;;16.10;99.90;;;;;;4949759;28;20078;-70
2023/04/08 10:34:25;;;;;;;4.55;2.58;;;16.10;99.90;;;;;;4957529;28;20031;-70
2023/04/08 10:36:54;;;;;;;2.97;2.00;;;16.10;99.60;;;;;;4958702;28;20396;-70
2023/04/08 10:39:20;;;;;;;4.65;2.20;;;16.20;97.10;;;;;;4958707;29;20023;-70
2023/04/08 10:41:48;;;;;;;3.90;2.33;;;16.20;98.40;;;;;;4958254;28;20035;-68
2023/04/08 10:44:17;;;;;;;4.78;2.20;;;16.20;97.50;;;;;;4958553;28;20030;-70
2023/04/08 10:46:44;;;;;;;4.72;2.20;;;16.20;97.60;;;;;;4957240;29;20035;-67
2023/04/08 10:49:10;;;;;;;3.25;2.30;;;16.20;96.90;;;;;;4956906;28;20024;-68
2023/04/08 10:51:38;;;;;;;2.88;2.35;;;16.10;97.60;;;;;;4958623;28;20031;-68
2023/04/08 10:54:08;;;;;;;4.10;2.40;;;16.20;97.90;;;;;;4957022;28;20066;-68
2023/04/08 10:56:35;;;;;;;4.20;2.05;;;16.30;97.20;;;;;;4958396;29;20027;-67
2023/04/08 10:59:01;;;;;;;4.75;2.47;;;16.40;96.70;;;;;;4958361;28;20023;-68
2023/04/08 11:01:28;;;;;;;3.63;2.50;;;16.40;97.40;;;;;;4958610;29;20023;-68
2023/04/08 11:03:53;;;;;;;2.80;2.00;;;16.40;97.00;;;;;;4958336;28;20026;-68
2023/04/08 11:06:19;;;;;;;3.35;2.13;;;16.50;97.10;;;;;;4958321;29;20555;-68
2023/04/08 11:08:46;;;;;;;4.10;2.60;;;16.50;96.70;;;;;;4957332;29;20110;-68
2023/04/08 11:11:11;;;;;;;2.72;2.53;;;16.60;93.90;;;;;;4956625;28;20028;-68
2023/04/08 11:13:42;;;;;;;5.18;2.38;;;16.60;93.30;;;;;;4958771;28;20030;-68
2023/04/08 11:16:08;;;;;;;5.35;2.10;;;16.60;93.40;;;;;;4958458;28;20110;-68
2023/04/08 11:18:36;;;;;;;4.13;2.30;;;16.70;93.20;;;;;;4958169;29;20058;-68
2023/04/08 11:21:03;;;;;;;3.83;2.20;;;16.80;93.90;;;;;;4959317;28;20078;-71
2023/04/08 11:23:28;;;;;;;5.85;2.75;;;16.80;95.50;;;;;;4961223;28;20419;-68
2023/04/08 11:25:55;;;;;;;3.83;2.30;;;17.00;94.40;;;;;;4961609;29;20032;-68
2023/04/08 11:28:22;;;;;;;5.70;2.58;;;17.00;92.20;;;;;;4960367;28;20027;-68
2023/04/08 11:30:48;;;;;;;3.53;2.03;;;17.00;93.40;;;;;;4960185;28;20043;-68
2023/04/08 11:33:14;;;;;;;5.63;2.00;;;17.20;91.00;;;;;;4961534;28;20106;-68
2023/04/08 11:35:42;;;;;;;3.88;2.40;;;17.20;89.10;;;;;;4961600;29;20059;-68
2023/04/08 11:38:09;;;;;;;9.10;2.50;;;17.20;83.40;;;;;;4961658;29;20488;-68
2023/04/08 11:40:35;;;;;;;3.42;1.80;;;17.20;82.90;;;;;;4961162;28;20026;-68
2023/04/08 11:43:09;;;;;;;4.72;2.53;;;17.20;79.90;;;;;;4961467;28;20102;-68
2023/04/08 11:45:38;;;;;;;2.95;1.63;;;17.30;81.70;;;;;;4958267;28;20103;-69
2023/04/08 11:48:12;;;;;;;4.93;1.92;;;17.30;81.90;;;;;;4956536;28;20086;-69
2023/04/08 11:50:39;;;;;;;2.55;1.67;;;17.30;82.50;;;;;;4961405;28;20039;-69
2023/04/08 11:53:24;;;;;;;4.47;1.98;;;17.40;86.60;;;;;;4959706;28;20046;-69
2023/04/08 11:55:50;;;;;;;5.57;2.20;;;17.50;86.40;;;;;;4959552;29;20085;-69
2023/04/08 11:58:16;;;;;;;2.78;2.00;;;17.70;90.10;;;;;;4961233;29;20042;-69
2023/04/08 12:00:43;;;;;;;3.17;1.90;;;17.70;88.50;;;;;;4961072;28;20024;-69
2023/04/08 12:03:09;;;;;;;5.53;2.17;;;17.80;86.30;;;;;;4961114;29;20480;-69
2023/04/08 12:05:35;;;;;;;3.67;2.10;;;18.00;83.40;;;;;;4960997;28;20031;-70
2023/04/08 12:08:01;;;;;;;2.92;1.77;;;18.00;79.50;;;;;;4961239;29;20039;-69
2023/04/08 12:10:27;;;;;;;5.28;2.10;;;18.20;80.80;;;;;;4960750;28;20054;-70
2023/04/08 12:12:52;;;;;;;4.32;2.25;;;18.40;79.30;;;;;;4959584;28;20035;-70
2023/04/08 12:15:18;;;;;;;4.05;2.00;;;18.40;80.70;;;;;;4960714;28;20023;-70
2023/04/08 12:17:44;;;;;;;2.70;1.75;;;18.30;72.50;;;;;;4960937;29;20023;-70
2023/04/08 12:20:11;;;;;;;3.03;1.90;;;18.00;73.90;;;;;;4960315;28;20035;-70
2023/04/08 12:22:37;;;;;;;3.00;1.80;;;17.90;78.40;;;;;;4960652;28;20472;-69
2023/04/08 12:25:03;;;;;;;4.50;2.42;;;17.80;78.30;;;;;;4959156;28;20412;-70
2023/04/08 12:27:30;;;;;;;2.45;1.60;;;17.90;77.60;;;;;;4959388;28;20035;-70
2023/04/08 12:29:56;;;;;;;2.85;1.83;;;17.80;74.40;;;;;;4960690;28;20119;-70
2023/04/08 12:32:24;;;;;;;3.35;1.88;;;18.00;76.00;;;;;;4960353;28;20058;-70
2023/04/08 12:34:50;;;;;;;3.40;1.83;;;18.20;74.90;;;;;;4960287;28;20029;-70
2023/04/08 12:37:16;;;;;;;4.97;2.10;;;18.30;74.80;;;;;;4960254;28;21407;-70
2023/04/08 12:39:41;;;;;;;2.50;1.75;;;18.20;73.60;;;;;;4960338;28;20030;-70
2023/04/08 12:42:07;;;;;;;2.40;1.77;;;18.20;74.10;;;;;;4959769;28;20098;-70
2023/04/08 12:44:33;;;;;;;3.88;1.75;;;18.20;76.00;;;;;;4960359;28;20046;-70
2023/04/08 12:46:59;;;;;;;3.75;1.83;;;18.20;71.90;;;;;;4958711;29;20106;-69
2023/04/08 12:49:25;;;;;;;3.72;2.28;;;18.30;72.90;;;;;;4960078;28;20526;-70
2023/04/08 12:51:51;;;;;;;4.65;1.98;;;18.20;72.70;;;;;;4960273;29;20055;-70